sensor_id;sensor_type;location;lat;lon;timestamp;pressure;altitude;pressure_sealevel;temperature;humidity
55733;BME280;41637;52.364;9.910;2023-10-08T00:02:25;101291.63;;;13.79;96.04
55733;BME280;41637;52.364;9.910;2023-10-08T00:04:55;101313.31;;;13.76;95.65
55733;BME280;41637;52.364;9.910;2023-10-08T00:07:22;101317.34;;;13.72;96.47
55733;BME280;41637;52.364;9.910;2023-10-08T00:09:51;101326.06;;;13.66;96.71
55733;BME280;41637;52.364;9.910;2023-10-08T00:12:19;101342.59;;;13.61;96.87
55733;BME280;41637;52.364;9.910;2023-10-08T00:14:47;101345.28;;;13.61;96.98
55733;BME280;41637;52.364;9.910;2023-10-08T00:17:16;101335.44;;;13.62;97.51
55733;BME280;41637;52.364;9.910;2023-10-08T00:19:46;101329.81;;;13.57;98.24
55733;BME280;41637;52.364;9.910;2023-10-08T00:22:19;101326.88;;;13.52;98.45
55733;BME280;41637;52.364;9.910;2023-10-08T00:24:46;101328.34;;;13.54;98.41
55733;BME280;41637;52.364;9.910;2023-10-08T00:27:16;101336.69;;;13.51;98.72
55733;BME280;41637;52.364;9.910;2023-10-08T00:29:44;101327.22;;;13.49;98.77
55733;BME280;41637;52.364;9.910;2023-10-08T00:32:12;101340.25;;;13.43;98.67
55733;BME280;41637;52.364;9.910;2023-10-08T00:34:42;101346.63;;;13.34;98.47
55733;BME280;41637;52.364;9.910;2023-10-08T00:37:10;101356.63;;;13.32;98.73
55733;BME280;41637;52.364;9.910;2023-10-08T00:39:41;101359.66;;;13.29;98.92
55733;BME280;41637;52.364;9.910;2023-10-08T00:42:08;101369.81;;;13.25;99.29
55733;BME280;41637;52.364;9.910;2023-10-08T00:44:36;101386.31;;;13.21;99.57
55733;BME280;41637;52.364;9.910;2023-10-08T00:47:15;101396.69;;;13.16;99.20
55733;BME280;41637;52.364;9.910;2023-10-08T00:49:43;101402.06;;;13.08;98.73
55733;BME280;41637;52.364;9.910;2023-10-08T00:52:21;101410.91;;;13.00;99.00
55733;BME280;41637;52.364;9.910;2023-10-08T00:55:05;101423.75;;;12.96;98.66
55733;BME280;41637;52.364;9.910;2023-10-08T00:57:42;101434.44;;;12.88;99.00
55733;BME280;41637;52.364;9.910;2023-10-08T01:00:09;101434.28;;;12.81;98.75
55733;BME280;41637;52.364;9.910;2023-10-08T01:02:44;101451.63;;;12.69;99.37
55733;BME280;41637;52.364;9.910;2023-10-08T01:05:27;101462.13;;;12.54;98.36
55733;BME280;41637;52.364;9.910;2023-10-08T01:08:14;101464.81;;;12.38;96.27
55733;BME280;41637;52.364;9.910;2023-10-08T01:10:50;101463.66;;;12.16;95.30
55733;BME280;41637;52.364;9.910;2023-10-08T01:13:30;101463.16;;;12.12;95.96
55733;BME280;41637;52.364;9.910;2023-10-08T01:16:02;101483.44;;;12.05;95.92
55733;BME280;41637;52.364;9.910;2023-10-08T01:18:29;101491.06;;;12.00;95.97
55733;BME280;41637;52.364;9.910;2023-10-08T01:20:59;101489.59;;;11.97;95.81
55733;BME280;41637;52.364;9.910;2023-10-08T01:23:35;101485.09;;;11.98;95.81
55733;BME280;41637;52.364;9.910;2023-10-08T01:26:02;101484.94;;;11.99;95.46
55733;BME280;41637;52.364;9.910;2023-10-08T01:28:38;101494.41;;;12.02;95.87
55733;BME280;41637;52.364;9.910;2023-10-08T01:31:05;101494.56;;;12.09;95.80
55733;BME280;41637;52.364;9.910;2023-10-08T01:33:33;101494.06;;;12.13;96.03
55733;BME280;41637;52.364;9.910;2023-10-08T01:36:20;101499.75;;;12.18;95.75
55733;BME280;41637;52.364;9.910;2023-10-08T01:38:49;101501.38;;;12.19;94.80
55733;BME280;41637;52.364;9.910;2023-10-08T01:41:17;101497.75;;;12.20;94.76
55733;BME280;41637;52.364;9.910;2023-10-08T01:43:47;101502.91;;;12.22;94.64
55733;BME280;41637;52.364;9.910;2023-10-08T01:46:14;101498.41;;;12.22;94.57
55733;BME280;41637;52.364;9.910;2023-10-08T01:48:42;101496.06;;;12.28;94.59
55733;BME280;41637;52.364;9.910;2023-10-08T01:51:12;101506.22;;;12.32;94.42
55733;BME280;41637;52.364;9.910;2023-10-08T01:53:46;101516.38;;;12.37;94.10
55733;BME280;41637;52.364;9.910;2023-10-08T01:56:14;101517.34;;;12.36;93.65
55733;BME280;41637;52.364;9.910;2023-10-08T01:58:41;101508.41;;;12.37;93.82
55733;BME280;41637;52.364;9.910;2023-10-08T02:01:08;101487.59;;;12.40;93.66
55733;BME280;41637;52.364;9.910;2023-10-08T02:03:39;101511.22;;;12.43;93.80
55733;BME280;41637;52.364;9.910;2023-10-08T02:06:06;101511.03;;;12.45;93.43
55733;BME280;41637;52.364;9.910;2023-10-08T02:08:35;101499.25;;;12.48;93.61
55733;BME280;41637;52.364;9.910;2023-10-08T02:11:03;101508.72;;;12.50;93.35
55733;BME280;41637;52.364;9.910;2023-10-08T02:13:30;101509.38;;;12.52;93.55
55733;BME280;41637;52.364;9.910;2023-10-08T02:15:57;101502.56;;;12.50;93.47
55733;BME280;41637;52.364;9.910;2023-10-08T02:18:24;101517.69;;;12.49;93.83
55733;BME280;41637;52.364;9.910;2023-10-08T02:20:52;101522.34;;;12.47;94.00
55733;BME280;41637;52.364;9.910;2023-10-08T02:23:19;101515.38;;;12.46;94.15
55733;BME280;41637;52.364;9.910;2023-10-08T02:25:46;101515.53;;;12.44;94.15
55733;BME280;41637;52.364;9.910;2023-10-08T02:28:14;101507.38;;;12.46;94.46
55733;BME280;41637;52.364;9.910;2023-10-08T02:30:42;101509.03;;;12.47;94.54
55733;BME280;41637;52.364;9.910;2023-10-08T02:33:10;101511.69;;;12.47;94.65
55733;BME280;41637;52.364;9.910;2023-10-08T02:35:44;101509.38;;;12.44;94.29
55733;BME280;41637;52.364;9.910;2023-10-08T02:38:14;101510.19;;;12.44;94.58
55733;BME280;41637;52.364;9.910;2023-10-08T02:40:45;101505.69;;;12.45;94.71
55733;BME280;41637;52.364;9.910;2023-10-08T02:43:15;101509.03;;;12.47;94.51
55733;BME280;41637;52.364;9.910;2023-10-08T02:45:43;101506.56;;;12.46;94.59
55733;BME280;41637;52.364;9.910;2023-10-08T02:48:14;101493.06;;;12.47;94.49
55733;BME280;41637;52.364;9.910;2023-10-08T02:50:43;101501.91;;;12.48;94.32
55733;BME280;41637;52.364;9.910;2023-10-08T02:53:14;101507.88;;;12.50;94.38
55733;BME280;41637;52.364;9.910;2023-10-08T02:55:50;101498.06;;;12.50;94.75
55733;BME280;41637;52.364;9.910;2023-10-08T02:58:17;101511.22;;;12.52;94.80
55733;BME280;41637;52.364;9.910;2023-10-08T03:00:48;101512.34;;;12.49;94.79
55733;BME280;41637;52.364;9.910;2023-10-08T03:03:16;101524.19;;;12.47;94.67
55733;BME280;41637;52.364;9.910;2023-10-08T03:05:49;101528.69;;;12.46;95.01
55733;BME280;41637;52.364;9.910;2023-10-08T03:08:17;101529.66;;;12.45;95.06
55733;BME280;41637;52.364;9.910;2023-10-08T03:10:50;101507.38;;;12.46;95.07
55733;BME280;41637;52.364;9.910;2023-10-08T03:13:17;101503.72;;;12.47;95.33
55733;BME280;41637;52.364;9.910;2023-10-08T03:15:46;101510.72;;;12.48;95.22
55733;BME280;41637;52.364;9.910;2023-10-08T03:18:29;101514.69;;;12.52;95.18
55733;BME280;41637;52.364;9.910;2023-10-08T03:21:04;101512.72;;;12.54;95.16
55733;BME280;41637;52.364;9.910;2023-10-08T03:23:32;101520.50;;;12.56;95.24
55733;BME280;41637;52.364;9.910;2023-10-08T03:26:03;101539.31;;;12.54;94.98
55733;BME280;41637;52.364;9.910;2023-10-08T03:28:30;101540.16;;;12.55;95.22
55733;BME280;41637;52.364;9.910;2023-10-08T03:31:01;101558.78;;;12.55;95.28
55733;BME280;41637;52.364;9.910;2023-10-08T03:33:35;101562.44;;;12.54;95.41
55733;BME280;41637;52.364;9.910;2023-10-08T03:36:04;101576.75;;;12.53;95.54
55733;BME280;41637;52.364;9.910;2023-10-08T03:38:48;101580.41;;;12.52;95.77
55733;BME280;41637;52.364;9.910;2023-10-08T03:41:22;101566.91;;;12.53;95.96
55733;BME280;41637;52.364;9.910;2023-10-08T03:43:55;101565.94;;;12.54;95.88
55733;BME280;41637;52.364;9.910;2023-10-08T03:46:29;101563.28;;;12.54;95.89
55733;BME280;41637;52.364;9.910;2023-10-08T03:48:56;101565.28;;;12.52;95.70
55733;BME280;41637;52.364;9.910;2023-10-08T03:51:24;101552.28;;;12.49;95.69
55733;BME280;41637;52.364;9.910;2023-10-08T03:53:54;101567.41;;;12.49;96.02
55733;BME280;41637;52.364;9.910;2023-10-08T03:56:36;101568.91;;;12.51;96.28
55733;BME280;41637;52.364;9.910;2023-10-08T03:59:07;101575.91;;;12.52;96.18
55733;BME280;41637;52.364;9.910;2023-10-08T04:01:55;101580.22;;;12.53;96.46
55733;BME280;41637;52.364;9.910;2023-10-08T04:04:25;101577.56;;;12.53;96.47
55733;BME280;41637;52.364;9.910;2023-10-08T04:07:20;101574.22;;;12.51;96.35
55733;BME280;41637;52.364;9.910;2023-10-08T04:10:00;101581.25;;;12.52;96.47
55733;BME280;41637;52.364;9.910;2023-10-08T04:12:36;101590.72;;;12.55;96.41
55733;BME280;41637;52.364;9.910;2023-10-08T04:15:09;101592.34;;;12.56;96.62
55733;BME280;41637;52.364;9.910;2023-10-08T04:17:36;101607.50;;;12.55;96.49
55733;BME280;41637;52.364;9.910;2023-10-08T04:20:15;101612.00;;;12.55;96.46
55733;BME280;41637;52.364;9.910;2023-10-08T04:23:09;101606.84;;;12.53;96.31
55733;BME280;41637;52.364;9.910;2023-10-08T04:25:48;101616.16;;;12.49;96.55
55733;BME280;41637;52.364;9.910;2023-10-08T04:28:21;101618.31;;;12.46;96.77
55733;BME280;41637;52.364;9.910;2023-10-08T04:30:48;101624.31;;;12.39;97.42
55733;BME280;41637;52.364;9.910;2023-10-08T04:33:17;101626.78;;;12.41;97.23
55733;BME280;41637;52.364;9.910;2023-10-08T04:35:46;101620.97;;;12.37;97.44
55733;BME280;41637;52.364;9.910;2023-10-08T04:38:21;101615.81;;;12.36;97.28
55733;BME280;41637;52.364;9.910;2023-10-08T04:40:56;101613.50;;;12.33;97.66
55733;BME280;41637;52.364;9.910;2023-10-08T04:43:29;101604.50;;;12.34;97.68
55733;BME280;41637;52.364;9.910;2023-10-08T04:45:58;101597.53;;;12.33;97.94
55733;BME280;41637;52.364;9.910;2023-10-08T04:48:26;101598.66;;;12.30;98.09
55733;BME280;41637;52.364;9.910;2023-10-08T04:50:54;101619.13;;;12.30;98.01
55733;BME280;41637;52.364;9.910;2023-10-08T04:53:29;101630.09;;;12.27;98.22
55733;BME280;41637;52.364;9.910;2023-10-08T04:56:06;101634.91;;;12.23;98.39
55733;BME280;41637;52.364;9.910;2023-10-08T04:58:34;101645.88;;;12.20;98.45
55733;BME280;41637;52.364;9.910;2023-10-08T05:01:04;101647.88;;;12.18;98.46
55733;BME280;41637;52.364;9.910;2023-10-08T05:03:51;101630.06;;;12.18;98.60
55733;BME280;41637;52.364;9.910;2023-10-08T05:06:28;101625.44;;;12.20;98.65
55733;BME280;41637;52.364;9.910;2023-10-08T05:09:09;101626.25;;;12.21;98.39
55733;BME280;41637;52.364;9.910;2023-10-08T05:11:57;101626.09;;;12.22;98.43
55733;BME280;41637;52.364;9.910;2023-10-08T05:14:37;101628.09;;;12.20;98.48
55733;BME280;41637;52.364;9.910;2023-10-08T05:17:22;101630.91;;;12.19;98.52
55733;BME280;41637;52.364;9.910;2023-10-08T05:19:49;101634.72;;;12.16;98.79
55733;BME280;41637;52.364;9.910;2023-10-08T05:22:34;101640.03;;;12.16;98.71
55733;BME280;41637;52.364;9.910;2023-10-08T05:25:04;101650.69;;;12.16;98.79
55733;BME280;41637;52.364;9.910;2023-10-08T05:27:39;101668.63;;;12.14;98.86
55733;BME280;41637;52.364;9.910;2023-10-08T05:30:16;101677.28;;;12.16;99.06
55733;BME280;41637;52.364;9.910;2023-10-08T05:32:44;101678.44;;;12.14;99.14
55733;BME280;41637;52.364;9.910;2023-10-08T05:35:37;101664.97;;;12.15;99.08
55733;BME280;41637;52.364;9.910;2023-10-08T05:38:12;101663.84;;;12.18;99.20
55733;BME280;41637;52.364;9.910;2023-10-08T05:40:42;101672.16;;;12.23;99.09
55733;BME280;41637;52.364;9.910;2023-10-08T05:43:33;101676.66;;;12.22;99.20
55733;BME280;41637;52.364;9.910;2023-10-08T05:46:06;101688.09;;;12.23;99.27
55733;BME280;41637;52.364;9.910;2023-10-08T05:49:03;101703.25;;;12.22;99.47
55733;BME280;41637;52.364;9.910;2023-10-08T05:51:30;101705.75;;;12.24;99.53
55733;BME280;41637;52.364;9.910;2023-10-08T05:54:14;101699.28;;;12.27;99.44
55733;BME280;41637;52.364;9.910;2023-10-08T05:57:09;101695.59;;;12.28;99.52
55733;BME280;41637;52.364;9.910;2023-10-08T06:02:30;101706.25;;;12.28;99.64
55733;BME280;41637;52.364;9.910;2023-10-08T06:05:11;101706.41;;;12.26;99.76
55733;BME280;41637;52.364;9.910;2023-10-08T06:07:51;101709.72;;;12.28;99.69
55733;BME280;41637;52.364;9.910;2023-10-08T06:10:22;101704.25;;;12.30;99.95
55733;BME280;41637;52.364;9.910;2023-10-08T06:15:52;101730.22;;;12.36;99.76
55733;BME280;41637;52.364;9.910;2023-10-08T06:18:28;101720.91;;;12.40;100.00
55733;BME280;41637;52.364;9.910;2023-10-08T06:20:57;101725.75;;;12.44;99.81
55733;BME280;41637;52.364;9.910;2023-10-08T06:23:29;101721.94;;;12.47;99.45
55733;BME280;41637;52.364;9.910;2023-10-08T06:26:02;101726.13;;;12.50;99.44
55733;BME280;41637;52.364;9.910;2023-10-08T06:28:43;101736.09;;;12.56;99.13
55733;BME280;41637;52.364;9.910;2023-10-08T06:31:11;101731.94;;;12.61;99.07
55733;BME280;41637;52.364;9.910;2023-10-08T06:33:39;101738.09;;;12.62;98.71
55733;BME280;41637;52.364;9.910;2023-10-08T06:36:09;101746.09;;;12.62;98.56
55733;BME280;41637;52.364;9.910;2023-10-08T06:38:40;101764.91;;;12.60;98.35
55733;BME280;41637;52.364;9.910;2023-10-08T06:41:12;101757.75;;;12.61;98.33
55733;BME280;41637;52.364;9.910;2023-10-08T06:44:04;101751.94;;;12.65;98.59
55733;BME280;41637;52.364;9.910;2023-10-08T06:46:41;101747.13;;;12.69;98.40
55733;BME280;41637;52.364;9.910;2023-10-08T06:49:09;101757.44;;;12.72;97.86
55733;BME280;41637;52.364;9.910;2023-10-08T06:51:40;101767.44;;;12.78;97.91
55733;BME280;41637;52.364;9.910;2023-10-08T06:54:11;101775.59;;;12.85;97.88
55733;BME280;41637;52.364;9.910;2023-10-08T06:56:41;101782.44;;;12.88;97.32
55733;BME280;41637;52.364;9.910;2023-10-08T06:59:13;101792.94;;;12.97;97.43
55733;BME280;41637;52.364;9.910;2023-10-08T07:01:41;101794.78;;;13.05;97.36
55733;BME280;41637;52.364;9.910;2023-10-08T07:04:13;101794.63;;;13.15;97.39
55733;BME280;41637;52.364;9.910;2023-10-08T07:06:42;101797.31;;;13.23;96.89
55733;BME280;41637;52.364;9.910;2023-10-08T07:09:17;101792.50;;;13.26;96.50
55733;BME280;41637;52.364;9.910;2023-10-08T07:11:57;101794.97;;;13.28;96.03
55733;BME280;41637;52.364;9.910;2023-10-08T07:14:26;101797.50;;;13.30;95.81
55733;BME280;41637;52.364;9.910;2023-10-08T07:16:57;101809.19;;;13.37;96.10
55733;BME280;41637;52.364;9.910;2023-10-08T07:19:29;101791.34;;;13.45;96.19
55733;BME280;41637;52.364;9.910;2023-10-08T07:22:08;101792.66;;;13.58;95.91
55733;BME280;41637;52.364;9.910;2023-10-08T07:24:55;101804.19;;;13.66;95.38
55733;BME280;41637;52.364;9.910;2023-10-08T07:27:25;101822.16;;;13.73;94.44
55733;BME280;41637;52.364;9.910;2023-10-08T07:29:57;101825.66;;;13.81;94.27
55733;BME280;41637;52.364;9.910;2023-10-08T07:32:27;101833.47;;;13.91;93.89
55733;BME280;41637;52.364;9.910;2023-10-08T07:34:57;101838.66;;;13.93;93.10
55733;BME280;41637;52.364;9.910;2023-10-08T07:37:41;101831.97;;;13.97;92.84
55733;BME280;41637;52.364;9.910;2023-10-08T07:40:09;101818.94;;;14.02;92.45
55733;BME280;41637;52.364;9.910;2023-10-08T07:42:38;101819.59;;;14.04;91.93
55733;BME280;41637;52.364;9.910;2023-10-08T07:45:05;101814.63;;;14.09;91.61
55733;BME280;41637;52.364;9.910;2023-10-08T07:47:32;101816.09;;;14.20;92.04
55733;BME280;41637;52.364;9.910;2023-10-08T07:49:59;101820.88;;;14.33;91.91
55733;BME280;41637;52.364;9.910;2023-10-08T07:52:26;101815.31;;;14.42;91.02
55733;BME280;41637;52.364;9.910;2023-10-08T07:54:53;101829.53;;;14.43;89.46
55733;BME280;41637;52.364;9.910;2023-10-08T07:57:20;101840.00;;;14.44;89.81
55733;BME280;41637;52.364;9.910;2023-10-08T07:59:52;101831.53;;;14.41;88.64
55733;BME280;41637;52.364;9.910;2023-10-08T08:02:37;101840.16;;;14.51;89.50
55733;BME280;41637;52.364;9.910;2023-10-08T08:05:05;101845.50;;;14.59;89.12
55733;BME280;41637;52.364;9.910;2023-10-08T08:07:32;101854.66;;;14.65;87.85
55733;BME280;41637;52.364;9.910;2023-10-08T08:09:59;101846.78;;;14.72;87.83
55733;BME280;41637;52.364;9.910;2023-10-08T08:12:28;101846.91;;;14.78;88.01
55733;BME280;41637;52.364;9.910;2023-10-08T08:14:55;101846.22;;;14.84;87.56
55733;BME280;41637;52.364;9.910;2023-10-08T08:17:22;101840.34;;;14.89;87.16
55733;BME280;41637;52.364;9.910;2023-10-08T08:19:52;101859.16;;;14.96;86.54
55733;BME280;41637;52.364;9.910;2023-10-08T08:22:20;101860.03;;;14.96;84.14
55733;BME280;41637;52.364;9.910;2023-10-08T08:24:52;101868.94;;;15.12;85.02
55733;BME280;41637;52.364;9.910;2023-10-08T08:27:31;101871.00;;;15.33;83.61
55733;BME280;41637;52.364;9.910;2023-10-08T08:29:59;101867.06;;;15.43;81.32
55733;BME280;41637;52.364;9.910;2023-10-08T08:32:44;101870.34;;;15.54;82.16
55733;BME280;41637;52.364;9.910;2023-10-08T08:35:19;101871.34;;;15.53;78.48
55733;BME280;41637;52.364;9.910;2023-10-08T08:37:47;101873.47;;;15.57;78.94
55733;BME280;41637;52.364;9.910;2023-10-08T08:40:14;101869.09;;;15.64;78.64
55733;BME280;41637;52.364;9.910;2023-10-08T08:42:45;101876.63;;;15.61;79.10
55733;BME280;41637;52.364;9.910;2023-10-08T08:45:18;101872.03;;;15.69;79.61
55733;BME280;41637;52.364;9.910;2023-10-08T08:47:47;101874.88;;;15.76;76.48
55733;BME280;41637;52.364;9.910;2023-10-08T08:50:14;101879.25;;;15.69;72.15
55733;BME280;41637;52.364;9.910;2023-10-08T08:52:41;101882.06;;;15.76;72.42
55733;BME280;41637;52.364;9.910;2023-10-08T08:55:09;101894.56;;;15.83;69.79
55733;BME280;41637;52.364;9.910;2023-10-08T08:57:46;101891.78;;;15.92;70.04
55733;BME280;41637;52.364;9.910;2023-10-08T09:00:15;101899.41;;;16.03;71.60
55733;BME280;41637;52.364;9.910;2023-10-08T09:02:46;101898.38;;;16.04;72.44
55733;BME280;41637;52.364;9.910;2023-10-08T09:05:16;101899.97;;;16.13;71.28
55733;BME280;41637;52.364;9.910;2023-10-08T09:08:04;101898.22;;;16.20;72.65
55733;BME280;41637;52.364;9.910;2023-10-08T09:10:36;101909.94;;;16.34;72.79
55733;BME280;41637;52.364;9.910;2023-10-08T09:13:22;101923.06;;;16.44;71.43
55733;BME280;41637;52.364;9.910;2023-10-08T09:15:50;101920.97;;;16.39;70.72
55733;BME280;41637;52.364;9.910;2023-10-08T09:18:22;101921.31;;;16.36;71.14
55733;BME280;41637;52.364;9.910;2023-10-08T09:20:49;101918.09;;;16.41;69.77
55733;BME280;41637;52.364;9.910;2023-10-08T09:23:16;101922.72;;;16.47;69.24
55733;BME280;41637;52.364;9.910;2023-10-08T09:25:49;101928.53;;;16.50;68.62
55733;BME280;41637;52.364;9.910;2023-10-08T09:28:31;101925.66;;;16.52;67.32
55733;BME280;41637;52.364;9.910;2023-10-08T09:30:59;101924.00;;;16.51;68.23
55733;BME280;41637;52.364;9.910;2023-10-08T09:33:28;101926.59;;;16.59;66.79
55733;BME280;41637;52.364;9.910;2023-10-08T09:35:55;101929.66;;;16.71;66.85
55733;BME280;41637;52.364;9.910;2023-10-08T09:38:29;101928.56;;;16.80;65.67
55733;BME280;41637;52.364;9.910;2023-10-08T09:40:57;101917.28;;;16.85;65.14
55733;BME280;41637;52.364;9.910;2023-10-08T09:43:27;101924.03;;;16.81;60.54
55733;BME280;41637;52.364;9.910;2023-10-08T09:46:08;101924.50;;;16.84;59.51
55733;BME280;41637;52.364;9.910;2023-10-08T09:48:41;101927.00;;;16.86;57.73
55733;BME280;41637;52.364;9.910;2023-10-08T09:51:10;101924.75;;;17.04;59.43
55733;BME280;41637;52.364;9.910;2023-10-08T09:54:40;101929.53;;;17.24;60.18
55733;BME280;41637;52.364;9.910;2023-10-08T09:56:47;101921.09;;;17.48;59.12
55733;BME280;41637;52.364;9.910;2023-10-08T09:59:15;101912.56;;;17.60;57.20
55733;BME280;41637;52.364;9.910;2023-10-08T10:01:43;101918.88;;;17.73;58.35
55733;BME280;41637;52.364;9.910;2023-10-08T10:04:23;101922.16;;;17.90;58.41
55733;BME280;41637;52.364;9.910;2023-10-08T10:06:55;101917.34;;;18.07;58.02
55733;BME280;41637;52.364;9.910;2023-10-08T10:09:25;101913.00;;;18.34;57.96
55733;BME280;41637;52.364;9.910;2023-10-08T10:11:54;101915.59;;;18.56;54.75
55733;BME280;41637;52.364;9.910;2023-10-08T10:14:24;101916.72;;;18.75;54.75
55733;BME280;41637;52.364;9.910;2023-10-08T10:17:14;101918.34;;;18.69;52.94
55733;BME280;41637;52.364;9.910;2023-10-08T10:20:04;101907.72;;;18.54;52.94
55733;BME280;41637;52.364;9.910;2023-10-08T10:22:34;101907.53;;;18.56;54.07
55733;BME280;41637;52.364;9.910;2023-10-08T10:25:02;101912.97;;;18.69;54.61
55733;BME280;41637;52.364;9.910;2023-10-08T10:30:21;101906.91;;;18.54;53.34
55733;BME280;41637;52.364;9.910;2023-10-08T10:32:54;101920.69;;;18.44;53.47
55733;BME280;41637;52.364;9.910;2023-10-08T10:35:21;101945.94;;;18.50;54.37
55733;BME280;41637;52.364;9.910;2023-10-08T10:37:50;101956.75;;;18.63;53.94
55733;BME280;41637;52.364;9.910;2023-10-08T10:40:25;101953.53;;;18.74;53.28
55733;BME280;41637;52.364;9.910;2023-10-08T10:43:07;101951.56;;;18.83;52.34
55733;BME280;41637;52.364;9.910;2023-10-08T10:45:35;101936.25;;;18.84;51.58
55733;BME280;41637;52.364;9.910;2023-10-08T10:48:03;101932.09;;;18.81;51.99
55733;BME280;41637;52.364;9.910;2023-10-08T10:50:56;101957.53;;;18.79;51.20
55733;BME280;41637;52.364;9.910;2023-10-08T10:53:34;101950.13;;;18.87;51.52
55733;BME280;41637;52.364;9.910;2023-10-08T10:56:28;101935.94;;;19.13;53.17
55733;BME280;41637;52.364;9.910;2023-10-08T10:59:02;101934.81;;;19.43;52.44
55733;BME280;41637;52.364;9.910;2023-10-08T11:01:46;101946.47;;;19.70;49.81
55733;BME280;41637;52.364;9.910;2023-10-08T11:04:31;101951.69;;;20.05;48.72
55733;BME280;41637;52.364;9.910;2023-10-08T11:07:00;101934.44;;;20.39;48.85
55733;BME280;41637;52.364;9.910;2023-10-08T11:09:27;101949.78;;;20.45;46.46
55733;BME280;41637;52.364;9.910;2023-10-08T11:12:08;101948.94;;;20.31;47.41
55733;BME280;41637;52.364;9.910;2023-10-08T11:14:42;101935.91;;;20.35;46.57
55733;BME280;41637;52.364;9.910;2023-10-08T11:17:17;101934.84;;;20.43;45.71
55733;BME280;41637;52.364;9.910;2023-10-08T11:19:46;101939.41;;;20.49;45.97
55733;BME280;41637;52.364;9.910;2023-10-08T11:22:13;101946.25;;;20.65;46.20
55733;BME280;41637;52.364;9.910;2023-10-08T11:24:46;101935.19;;;20.80;45.46
55733;BME280;41637;52.364;9.910;2023-10-08T11:27:21;101910.56;;;21.14;45.56
55733;BME280;41637;52.364;9.910;2023-10-08T11:30:02;101886.38;;;21.33;44.07
55733;BME280;41637;52.364;9.910;2023-10-08T11:32:38;101906.28;;;21.38;43.76
55733;BME280;41637;52.364;9.910;2023-10-08T11:35:06;101928.06;;;21.44;42.93
55733;BME280;41637;52.364;9.910;2023-10-08T11:37:46;101945.34;;;21.36;42.93
55733;BME280;41637;52.364;9.910;2023-10-08T11:40:25;101967.81;;;21.23;42.89
55733;BME280;41637;52.364;9.910;2023-10-08T11:42:57;101956.13;;;21.29;42.37
55733;BME280;41637;52.364;9.910;2023-10-08T11:45:26;101932.41;;;21.51;43.23
55733;BME280;41637;52.364;9.910;2023-10-08T11:47:54;101915.22;;;21.71;41.53
55733;BME280;41637;52.364;9.910;2023-10-08T11:50:27;101897.03;;;21.85;41.89
55733;BME280;41637;52.364;9.910;2023-10-08T11:52:59;101870.66;;;21.80;41.73
55733;BME280;41637;52.364;9.910;2023-10-08T11:55:30;101889.91;;;21.90;41.10
55733;BME280;41637;52.364;9.910;2023-10-08T11:58:04;101921.13;;;22.11;41.42
55733;BME280;41637;52.364;9.910;2023-10-08T12:00:38;101916.63;;;22.49;41.34
55733;BME280;41637;52.364;9.910;2023-10-08T12:03:13;101923.81;;;22.73;39.86
55733;BME280;41637;52.364;9.910;2023-10-08T12:05:46;101918.53;;;22.97;40.85
55733;BME280;41637;52.364;9.910;2023-10-08T12:08:18;101915.28;;;23.25;39.78
55733;BME280;41637;52.364;9.910;2023-10-08T12:10:48;101911.66;;;23.31;39.00
55733;BME280;41637;52.364;9.910;2023-10-08T12:13:15;101904.34;;;23.74;39.07
55733;BME280;41637;52.364;9.910;2023-10-08T12:15:45;101915.59;;;23.89;38.02
55733;BME280;41637;52.364;9.910;2023-10-08T12:18:14;101911.78;;;23.90;37.85
55733;BME280;41637;52.364;9.910;2023-10-08T12:20:56;101923.00;;;23.94;38.41
55733;BME280;41637;52.364;9.910;2023-10-08T12:23:23;101912.53;;;24.21;37.91
55733;BME280;41637;52.364;9.910;2023-10-08T12:25:53;101911.09;;;24.30;36.96
55733;BME280;41637;52.364;9.910;2023-10-08T12:28:23;101900.25;;;24.30;37.79
55733;BME280;41637;52.364;9.910;2023-10-08T12:30:51;101897.53;;;24.30;37.80
55733;BME280;41637;52.364;9.910;2023-10-08T12:33:23;101898.38;;;24.19;36.44
55733;BME280;41637;52.364;9.910;2023-10-08T12:35:53;101900.03;;;23.96;36.55
55733;BME280;41637;52.364;9.910;2023-10-08T12:38:23;101897.53;;;23.83;38.00
55733;BME280;41637;52.364;9.910;2023-10-08T12:40:51;101888.44;;;23.66;36.63
55733;BME280;41637;52.364;9.910;2023-10-08T12:43:22;101882.16;;;23.53;37.00
55733;BME280;41637;52.364;9.910;2023-10-08T12:45:50;101876.97;;;23.52;37.29
55733;BME280;41637;52.364;9.910;2023-10-08T12:48:28;101873.97;;;23.30;36.86
55733;BME280;41637;52.364;9.910;2023-10-08T12:50:55;101862.06;;;22.89;36.17
55733;BME280;41637;52.364;9.910;2023-10-08T12:53:28;101849.69;;;22.93;37.22
55733;BME280;41637;52.364;9.910;2023-10-08T12:56:05;101848.03;;;23.10;36.77
55733;BME280;41637;52.364;9.910;2023-10-08T12:58:36;101835.59;;;23.33;36.68
55733;BME280;41637;52.364;9.910;2023-10-08T13:01:11;101836.81;;;23.49;36.25
55733;BME280;41637;52.364;9.910;2023-10-08T13:03:38;101820.22;;;23.69;37.34
55733;BME280;41637;52.364;9.910;2023-10-08T13:06:09;101821.78;;;23.88;36.48
55733;BME280;41637;52.364;9.910;2023-10-08T13:08:41;101836.63;;;23.97;35.73
55733;BME280;41637;52.364;9.910;2023-10-08T13:11:09;101850.16;;;24.21;35.88
55733;BME280;41637;52.364;9.910;2023-10-08T13:13:35;101847.78;;;24.36;35.51
55733;BME280;41637;52.364;9.910;2023-10-08T13:16:04;101849.31;;;24.32;35.36
55733;BME280;41637;52.364;9.910;2023-10-08T13:18:34;101856.94;;;24.47;35.44
55733;BME280;41637;52.364;9.910;2023-10-08T13:21:04;101857.72;;;24.71;35.29
55733;BME280;41637;52.364;9.910;2023-10-08T13:23:31;101853.56;;;24.80;34.93
55733;BME280;41637;52.364;9.910;2023-10-08T13:26:02;101854.56;;;24.62;35.16
55733;BME280;41637;52.364;9.910;2023-10-08T13:28:34;101862.88;;;24.20;35.46